Time;durP1;ratioP1;P1;durP2;ratioP2;P2;SDS_P1;SDS_P2;PMS_P1;PMS_P2;Temp;Humidity;BMP_temperature;BMP_pressure;BME280_temperature;BME280_humidity;BME280_pressure;Samples;Min_cycle;Max_cycle;Signal;HPM_P1;HPM_P2
2024/03/09 00:00:32;;;;;;;50.42;25.30;;;1.90;99.90;;;-148.53;100.00;63986.66;5031400;28;20042;-80
2024/03/09 00:03:02;;;;;;;52.78;26.27;;;2.00;99.90;;;-148.53;100.00;63986.66;5012868;28;20431;-80
2024/03/09 00:05:29;;;;;;;51.60;26.05;;;2.00;99.90;;;-148.53;100.00;63986.66;5018372;28;20106;-81
2024/03/09 00:07:57;;;;;;;55.85;27.55;;;2.00;99.90;;;-148.53;100.00;63986.66;5011584;28;20034;-80
2024/03/09 00:10:28;;;;;;;58.83;29.60;;;2.00;99.90;;;-148.53;100.00;63986.66;5015146;28;20378;-79
2024/03/09 00:12:56;;;;;;;53.15;27.70;;;2.10;99.90;;;-148.53;100.00;63986.66;5016324;28;20073;-81
2024/03/09 00:15:24;;;;;;;55.17;27.13;;;2.10;99.90;;;-148.53;100.00;63986.66;5021629;28;20091;-81
2024/03/09 00:17:55;;;;;;;53.03;26.83;;;2.20;99.90;;;-148.53;100.00;63986.66;5012661;28;20037;-81
2024/03/09 00:20:32;;;;;;;55.88;27.15;;;2.20;99.90;;;-148.53;100.00;63986.66;5012606;28;20046;-80
2024/03/09 00:22:58;;;;;;;52.47;26.73;;;2.20;99.90;;;-148.53;100.00;63986.66;5013108;28;20034;-80
2024/03/09 00:25:28;;;;;;;52.67;26.80;;;2.20;99.90;;;-148.53;100.00;63986.66;5013963;28;20375;-79
2024/03/09 00:27:56;;;;;;;53.83;27.75;;;2.20;99.90;;;-148.53;100.00;63986.66;5015158;28;20446;-80
2024/03/09 00:30:29;;;;;;;56.03;28.63;;;2.10;99.90;;;-148.53;100.00;63986.66;5014060;28;20445;-79
2024/03/09 00:33:00;;;;;;;59.80;28.20;;;2.10;99.90;;;-148.53;100.00;63986.66;5012130;28;20037;-79
2024/03/09 00:35:30;;;;;;;59.58;28.75;;;2.10;99.90;;;-148.53;100.00;63986.66;5014886;28;20030;-79
2024/03/09 00:37:57;;;;;;;54.45;28.10;;;2.10;99.90;;;-148.53;100.00;63986.66;5016520;28;20033;-79
2024/03/09 00:40:30;;;;;;;60.70;29.48;;;2.10;99.90;;;-148.53;100.00;63986.66;5032711;28;20073;-79
2024/03/09 00:42:59;;;;;;;57.88;28.83;;;2.00;99.90;;;-148.53;100.00;63986.66;5011748;28;20128;-79
2024/03/09 00:45:25;;;;;;;62.17;30.65;;;1.90;99.90;;;-148.53;100.00;63986.66;5011825;28;20265;-79
2024/03/09 00:47:51;;;;;;;57.53;29.60;;;1.90;99.90;;;-148.53;100.00;63986.66;5011835;28;20037;-79
2024/03/09 00:50:17;;;;;;;59.10;28.65;;;1.90;99.90;;;-148.53;100.00;63986.66;5011803;28;20466;-80
2024/03/09 00:52:45;;;;;;;64.53;29.88;;;1.90;99.90;;;-148.53;100.00;63986.66;5031352;28;20088;-80
2024/03/09 00:55:14;;;;;;;63.83;29.95;;;1.90;99.90;;;-148.53;100.00;63986.66;5019539;28;20466;-79
2024/03/09 00:57:45;;;;;;;58.55;29.27;;;1.90;99.90;;;-148.53;100.00;63986.66;5025236;28;20449;-79
2024/03/09 01:00:16;;;;;;;61.58;30.60;;;2.00;99.90;;;-148.53;100.00;63986.66;5019752;28;20116;-79
2024/03/09 01:02:43;;;;;;;63.95;30.90;;;2.00;99.90;;;-148.53;100.00;63986.66;5014112;28;20030;-80
2024/03/09 01:05:10;;;;;;;57.78;29.92;;;1.90;99.90;;;-148.53;100.00;63986.66;5014303;28;20053;-79
2024/03/09 01:07:39;;;;;;;65.95;31.90;;;1.90;99.90;;;-148.53;100.00;63986.66;5016353;28;20061;-80
2024/03/09 01:10:08;;;;;;;66.90;31.42;;;1.90;99.90;;;-148.53;100.00;63986.66;5021333;28;20452;-80
2024/03/09 01:12:35;;;;;;;61.97;30.05;;;1.90;99.90;;;-148.53;100.00;63986.66;5019956;28;20033;-80
2024/03/09 01:15:07;;;;;;;68.60;33.17;;;1.90;99.90;;;-148.53;100.00;63986.66;5015779;28;20029;-79
2024/03/09 01:17:35;;;;;;;65.60;31.25;;;1.90;99.90;;;-148.53;100.00;63986.66;5020253;28;20295;-81
2024/03/09 01:20:06;;;;;;;62.05;31.17;;;1.90;99.90;;;-148.53;100.00;63986.66;5014833;28;20168;-81
2024/03/09 01:22:36;;;;;;;62.17;31.90;;;1.90;99.90;;;-148.53;100.00;63986.66;5014075;28;20084;-81
2024/03/09 01:25:03;;;;;;;64.90;32.08;;;1.90;99.90;;;-148.53;100.00;63986.66;5032326;28;20079;-81
2024/03/09 01:27:28;;;;;;;64.93;31.27;;;1.80;99.90;;;-148.53;100.00;63986.66;5039473;28;20064;-81
2024/03/09 01:29:59;;;;;;;67.50;31.77;;;1.80;99.90;;;-148.53;100.00;63986.66;5018643;28;20030;-81
2024/03/09 01:32:25;;;;;;;62.25;32.25;;;1.80;99.90;;;-148.53;100.00;63986.66;5015692;28;20532;-81
2024/03/09 01:34:51;;;;;;;66.07;31.13;;;1.80;99.90;;;-148.53;100.00;63986.66;5015205;28;20140;-81
2024/03/09 01:37:19;;;;;;;66.75;32.33;;;1.70;99.90;;;-148.53;100.00;63986.66;5015203;28;20037;-80
2024/03/09 01:39:49;;;;;;;65.68;32.10;;;1.80;99.90;;;-148.53;100.00;63986.66;5019906;28;20033;-80
2024/03/09 01:42:18;;;;;;;67.25;31.88;;;1.80;99.90;;;-148.53;100.00;63986.66;5020122;28;20076;-80
2024/03/09 01:44:49;;;;;;;62.50;31.55;;;1.80;99.90;;;-148.53;100.00;63986.66;5019983;28;20037;-80
2024/03/09 01:47:18;;;;;;;64.60;31.48;;;1.70;99.90;;;-148.53;100.00;63986.66;5015249;28;20467;-81
2024/03/09 01:49:45;;;;;;;67.40;33.97;;;1.70;99.90;;;-148.53;100.00;63986.66;5016567;28;21104;-80
2024/03/09 01:52:12;;;;;;;68.53;33.22;;;1.70;99.90;;;-148.53;100.00;63986.66;5026216;28;20061;-80
2024/03/09 01:54:43;;;;;;;69.60;32.72;;;1.70;99.90;;;-148.53;100.00;63986.66;5023364;28;20110;-80
2024/03/09 01:57:13;;;;;;;70.43;33.33;;;1.70;99.90;;;-148.53;100.00;63986.66;5020184;28;20041;-81
2024/03/09 01:59:47;;;;;;;75.95;34.00;;;1.70;99.90;;;-148.53;100.00;63986.66;5025050;28;20041;-80
2024/03/09 02:02:15;;;;;;;73.85;35.03;;;1.70;99.90;;;-148.53;100.00;63986.66;5029988;28;20042;-81
2024/03/09 02:04:41;;;;;;;66.60;33.00;;;1.60;99.90;;;-148.53;100.00;63986.66;5018492;28;20152;-80
2024/03/09 02:07:07;;;;;;;67.60;32.85;;;1.60;99.90;;;-148.53;100.00;63986.66;5023386;28;20112;-81
2024/03/09 02:09:34;;;;;;;66.82;31.38;;;1.60;99.90;;;-148.53;100.00;63986.66;5021381;28;20428;-81
2024/03/09 02:12:05;;;;;;;73.25;33.60;;;1.60;99.90;;;-148.53;100.00;63986.66;5020290;28;20090;-81
2024/03/09 02:14:33;;;;;;;66.10;32.55;;;1.50;99.90;;;-148.53;100.00;63986.66;5019325;28;20042;-81
2024/03/09 02:17:02;;;;;;;;;;;1.50;99.90;;;-148.53;100.00;63986.66;5015506;28;20041;-80
2024/03/09 02:19:27;;;;;;;66.82;31.80;;;1.50;99.90;;;-148.53;100.00;63986.66;5022035;28;19924;-80
2024/03/09 02:21:54;;;;;;;70.30;34.33;;;1.50;99.90;;;-148.53;100.00;63986.66;5018718;28;20073;-81
2024/03/09 02:24:23;;;;;;;73.13;33.95;;;1.50;99.90;;;-148.53;100.00;63986.66;5019823;28;20120;-79
2024/03/09 02:26:50;;;;;;;73.82;35.22;;;1.60;99.90;;;-148.53;100.00;63986.66;5036882;28;20441;-80
2024/03/09 02:29:18;;;;;;;72.63;32.95;;;1.60;99.90;;;-148.53;100.00;63986.66;5018320;28;20424;-81
2024/03/09 02:31:44;;;;;;;72.47;34.78;;;1.60;99.90;;;-148.53;100.00;63986.66;5015252;28;20060;-81
2024/03/09 02:34:10;;;;;;;71.63;34.45;;;1.50;99.90;;;-148.53;100.00;63986.66;5037130;28;20397;-81
2024/03/09 02:36:38;;;;;;;74.57;34.78;;;1.50;99.90;;;-148.53;100.00;63986.66;5030426;28;20038;-81
2024/03/09 02:39:07;;;;;;;;;;;1.50;99.90;;;-148.53;100.00;63986.66;5038344;28;20041;-80
2024/03/09 02:41:33;;;;;;;71.13;32.50;;;1.50;99.90;;;-148.53;100.00;63986.66;5024059;28;19913;-80
2024/03/09 02:43:58;;;;;;;70.88;34.63;;;1.50;99.90;;;-148.53;100.00;63986.66;5029135;28;20040;-80
2024/03/09 02:46:28;;;;;;;66.68;34.03;;;1.50;99.90;;;-148.53;100.00;63986.66;5031674;28;20442;-81
2024/03/09 02:48:54;;;;;;;70.20;33.03;;;1.40;99.90;;;-148.53;100.00;63986.66;5033790;28;20489;-81
2024/03/09 02:51:25;;;;;;;72.70;32.75;;;1.30;99.90;;;-148.53;100.00;63986.66;5018885;28;20512;-81
2024/03/09 02:53:51;;;;;;;72.63;33.58;;;1.30;99.90;;;-148.53;100.00;63986.66;5021964;28;20042;-81
2024/03/09 02:56:19;;;;;;;73.18;34.08;;;1.30;99.90;;;-148.53;100.00;63986.66;5030955;28;20057;-81
2024/03/09 02:58:46;;;;;;;66.97;32.35;;;1.30;99.90;;;-148.53;100.00;63986.66;5020667;28;20038;-81
2024/03/09 03:01:13;;;;;;;67.38;31.95;;;1.20;99.90;;;-148.53;100.00;63986.66;5019278;28;20052;-81
2024/03/09 03:06:18;;;;;;;74.28;34.85;;;1.20;99.90;;;-148.53;100.00;63986.66;5020918;28;20054;-81
2024/03/09 03:08:46;;;;;;;77.63;34.75;;;1.20;99.90;;;-148.53;100.00;63986.66;5041229;28;20056;-81
2024/03/09 03:11:16;;;;;;;79.03;36.30;;;1.20;99.90;;;-148.53;100.00;63986.66;5027636;28;20069;-81
2024/03/09 03:13:44;;;;;;;70.70;33.95;;;1.20;99.90;;;-148.53;100.00;63986.66;5020380;28;20083;-80
2024/03/09 03:16:16;;;;;;;81.72;35.45;;;1.20;99.90;;;-148.53;100.00;63986.66;5014525;28;20135;-80
2024/03/09 03:18:43;;;;;;;76.32;36.88;;;1.10;99.90;;;-148.53;100.00;63986.66;5016969;28;20531;-80
2024/03/09 03:21:09;;;;;;;74.45;34.88;;;1.20;99.90;;;-148.53;100.00;63986.66;5013709;28;20053;-81
2024/03/09 03:23:36;;;;;;;76.10;36.78;;;1.10;99.90;;;-148.53;100.00;63986.66;5017281;28;20516;-81
2024/03/09 03:26:03;;;;;;;73.68;34.88;;;1.20;99.90;;;-148.53;100.00;63986.66;5028614;28;20033;-81
2024/03/09 03:28:32;;;;;;;76.57;34.72;;;1.20;99.90;;;-148.53;100.00;63986.66;5017486;28;20435;-81
2024/03/09 03:30:59;;;;;;;72.82;35.30;;;1.20;99.90;;;-148.53;100.00;63986.66;5020152;28;20026;-81
2024/03/09 03:33:27;;;;;;;71.57;34.20;;;1.20;99.90;;;-148.53;100.00;63986.66;5013372;28;20064;-81
2024/03/09 03:35:52;;;;;;;78.65;35.97;;;1.20;99.90;;;-148.53;100.00;63986.66;5009556;28;20295;-80
2024/03/09 03:38:18;;;;;;;75.10;36.03;;;1.20;99.90;;;-148.53;100.00;63986.66;5019511;28;20044;-81
2024/03/09 03:40:44;;;;;;;81.75;36.85;;;1.20;99.90;;;-148.53;100.00;63986.66;5019534;28;20058;-80
2024/03/09 03:43:10;;;;;;;78.00;35.72;;;1.20;99.90;;;-148.53;100.00;63986.66;5013148;28;20088;-81
2024/03/09 03:45:36;;;;;;;69.22;34.38;;;1.10;99.90;;;-148.53;100.00;63986.66;5022442;28;20045;-80
2024/03/09 03:48:04;;;;;;;75.82;35.38;;;1.10;99.90;;;-148.53;100.00;63986.66;5023980;28;20374;-80
2024/03/09 03:50:30;;;;;;;75.10;37.33;;;1.10;99.90;;;-148.53;100.00;63986.66;5033941;28;20037;-81
2024/03/09 03:52:56;;;;;;;76.55;35.55;;;1.00;99.90;;;-148.53;100.00;63986.66;5017588;28;20100;-80
2024/03/09 03:55:21;;;;;;;76.60;35.95;;;1.10;99.90;;;-148.53;100.00;63986.66;5012794;28;20052;-80
2024/03/09 03:57:47;;;;;;;78.90;36.90;;;1.10;99.90;;;-148.53;100.00;63986.66;5016000;28;20160;-80
2024/03/09 04:00:13;;;;;;;75.32;36.38;;;1.00;99.90;;;-148.53;100.00;63986.66;5012799;28;20041;-80
2024/03/09 04:02:41;;;;;;;77.03;36.08;;;1.00;99.90;;;-148.53;100.00;63986.66;5016432;28;20056;-80
2024/03/09 04:05:08;;;;;;;77.65;35.28;;;1.00;99.90;;;-148.53;100.00;63986.66;5018182;28;20557;-80
2024/03/09 04:07:34;;;;;;;75.28;35.63;;;1.00;99.90;;;-148.53;100.00;63986.66;5034587;28;20033;-80
2024/03/09 04:10:03;;;;;;;76.57;35.65;;;1.00;99.90;;;-148.53;100.00;63986.66;5014087;28;20038;-80
2024/03/09 04:12:29;;;;;;;73.43;34.67;;;0.90;99.90;;;-148.53;100.00;63986.66;5018765;28;20048;-79
2024/03/09 04:14:57;;;;;;;81.20;37.92;;;0.90;99.90;;;-148.53;100.00;63986.66;5017707;28;20030;-80
2024/03/09 04:17:23;;;;;;;76.35;36.05;;;1.00;99.90;;;-148.53;100.00;63986.66;5011791;28;20496;-79
2024/03/09 04:19:49;;;;;;;78.07;37.13;;;0.90;99.90;;;-148.53;100.00;63986.66;5012906;28;20036;-79
2024/03/09 04:22:15;;;;;;;81.75;36.85;;;0.90;99.90;;;-148.53;100.00;63986.66;4995493;28;20042;-80
2024/03/09 04:24:44;;;;;;;74.68;35.28;;;0.90;99.90;;;-148.53;100.00;63986.66;5012249;28;20513;-80
2024/03/09 04:27:10;;;;;;;76.35;35.60;;;0.90;99.90;;;-148.53;100.00;63986.66;5036574;28;20054;-81
2024/03/09 04:29:37;;;;;;;83.68;36.13;;;0.90;99.90;;;-148.53;100.00;63986.66;5018372;28;20037;-80
2024/03/09 04:32:03;;;;;;;77.47;36.35;;;0.90;99.90;;;-148.53;100.00;63986.66;5022481;28;20045;-80
2024/03/09 04:34:33;;;;;;;76.18;36.50;;;0.90;99.90;;;-148.53;100.00;63986.66;5019371;28;20034;-80
2024/03/09 04:37:00;;;;;;;81.68;36.95;;;0.90;99.90;;;-148.53;100.00;63986.66;5019595;28;20474;-81
2024/03/09 04:39:26;;;;;;;76.40;36.28;;;0.90;99.90;;;-148.53;100.00;63986.66;5011711;28;20054;-80
2024/03/09 04:41:54;;;;;;;76.05;36.42;;;0.90;99.90;;;-148.53;100.00;63986.66;5012475;28;20037;-80
2024/03/09 04:44:23;;;;;;;79.18;36.65;;;0.90;99.90;;;-148.53;100.00;63986.66;5032300;28;20436;-80
2024/03/09 04:46:52;;;;;;;79.63;36.88;;;0.90;99.90;;;-148.53;100.00;63986.66;5019501;28;20045;-81
2024/03/09 04:49:18;;;;;;;79.20;36.67;;;0.90;99.90;;;-148.53;100.00;63986.66;5019688;28;20041;-80
2024/03/09 04:51:45;;;;;;;80.93;36.40;;;0.90;99.90;;;-148.53;100.00;63986.66;5012172;28;20050;-80
2024/03/09 04:54:11;;;;;;;76.38;34.80;;;0.80;99.90;;;-148.53;100.00;63986.66;5017405;28;20033;-81
2024/03/09 04:56:37;;;;;;;81.03;36.58;;;0.80;99.90;;;-148.53;100.00;63986.66;5011883;28;20045;-81
2024/03/09 04:59:02;;;;;;;85.10;37.13;;;0.90;99.90;;;-148.53;100.00;63986.66;5032570;28;20038;-81
2024/03/09 05:01:28;;;;;;;86.30;39.00;;;1.00;99.90;;;-148.53;100.00;63986.66;5015323;28;20034;-80
2024/03/09 05:03:54;;;;;;;83.70;36.60;;;0.90;99.90;;;-148.53;100.00;63986.66;5011863;28;20034;-80
2024/03/09 05:06:20;;;;;;;81.60;36.60;;;0.90;99.90;;;-148.53;100.00;63986.66;5011664;28;20388;-80
2024/03/09 05:08:45;;;;;;;79.93;36.83;;;0.90;99.90;;;-148.53;100.00;63986.66;5021991;28;20038;-81
2024/03/09 05:11:12;;;;;;;78.15;35.00;;;0.90;99.90;;;-148.53;100.00;63986.66;5015099;28;20118;-80
2024/03/09 05:13:39;;;;;;;74.18;34.65;;;0.90;99.90;;;-148.53;100.00;63986.66;5035586;28;20402;-81
2024/03/09 05:16:05;;;;;;;76.53;34.58;;;0.80;99.90;;;-148.53;100.00;63986.66;5019825;28;20033;-81
2024/03/09 05:18:30;;;;;;;73.20;34.65;;;0.80;99.90;;;-148.53;100.00;63986.66;5012055;28;20394;-80
2024/03/09 05:20:56;;;;;;;81.30;36.15;;;0.80;99.90;;;-148.53;100.00;63986.66;5012144;28;20088;-81
2024/03/09 05:23:23;;;;;;;74.43;33.90;;;0.70;99.90;;;-148.53;100.00;63986.66;5016299;28;20042;-81
2024/03/09 05:25:48;;;;;;;81.03;34.67;;;0.70;99.90;;;-148.53;100.00;63986.66;5011932;28;20138;-81
2024/03/09 05:28:15;;;;;;;76.43;33.00;;;0.70;99.90;;;-148.53;100.00;63986.66;5011679;28;20061;-81
2024/03/09 05:30:41;;;;;;;73.00;32.47;;;0.60;99.90;;;-148.53;100.00;63986.66;5025488;28;20120;-81
2024/03/09 05:33:07;;;;;;;73.65;32.80;;;0.60;99.90;;;-148.53;100.00;63986.66;5033753;28;20041;-81
2024/03/09 05:35:34;;;;;;;78.18;33.35;;;0.50;99.90;;;-148.53;100.00;63986.66;5014626;28;20038;-82
2024/03/09 05:38:03;;;;;;;66.75;31.90;;;0.50;99.90;;;-148.53;100.00;63986.66;5013293;28;20041;-81
2024/03/09 05:40:30;;;;;;;78.25;34.15;;;0.40;99.90;;;-148.53;100.00;63986.66;5031568;28;20409;-81
2024/03/09 05:42:58;;;;;;;81.53;35.60;;;0.40;99.90;;;-148.53;100.00;63986.66;5017495;28;20036;-81
2024/03/09 05:45:24;;;;;;;79.70;33.50;;;0.40;99.90;;;-148.53;100.00;63986.66;5012497;28;20680;-81
2024/03/09 05:47:55;;;;;;;76.90;32.63;;;0.40;99.90;;;-148.53;100.00;63986.66;5017757;28;20105;-81
2024/03/09 05:50:30;;;;;;;78.55;33.95;;;0.40;99.90;;;-148.53;100.00;63986.66;5015464;28;20045;-79
2024/03/09 05:53:00;;;;;;;70.55;32.70;;;0.40;99.90;;;-148.53;100.00;63986.66;5036550;28;20438;-80
2024/03/09 05:55:27;;;;;;;82.68;34.85;;;0.30;99.90;;;-148.53;100.00;63986.66;5038110;28;20125;-80
2024/03/09 05:57:54;;;;;;;74.57;33.20;;;0.20;99.90;;;-148.53;100.00;63986.66;5036962;28;20124;-81
2024/03/09 06:00:25;;;;;;;;;;;;;;;-148.53;100.00;63986.66;5039106;28;20555;-80
2024/03/09 06:02:51;;;;;;;74.90;31.80;;;0.00;99.90;;;-148.53;100.00;63986.66;5037811;28;20381;-80
2024/03/09 06:05:22;;;;;;;71.90;31.50;;;-0.10;99.90;;;-148.53;100.00;63986.66;5030870;28;20052;-82
2024/03/09 06:07:48;;;;;;;72.93;32.13;;;-0.20;99.90;;;-148.53;100.00;63986.66;5033680;28;20080;-82
2024/03/09 06:10:19;;;;;;;66.97;30.98;;;-0.20;99.90;;;-148.53;100.00;63986.66;5032688;28;20152;-78
2024/03/09 06:12:47;;;;;;;72.43;30.65;;;-0.30;99.90;;;-148.53;100.00;63986.66;5024603;28;20080;-84
2024/03/09 06:15:14;;;;;;;72.20;30.92;;;-0.30;99.90;;;-148.53;100.00;63986.66;5038474;28;20116;-84
2024/03/09 06:17:46;;;;;;;72.88;31.42;;;-0.30;99.90;;;-148.53;100.00;63986.66;5037277;28;20113;-88
2024/03/09 06:20:14;;;;;;;74.25;32.33;;;-0.30;99.90;;;-148.53;100.00;63986.66;5025396;28;20493;-79
2024/03/09 06:22:45;;;;;;;75.57;31.90;;;-0.30;99.90;;;-148.53;100.00;63986.66;5054542;28;20512;-81
2024/03/09 06:25:22;;;;;;;72.72;30.33;;;-0.20;99.90;;;-148.53;100.00;63986.66;5038317;28;20083;-81
2024/03/09 06:27:54;;;;;;;77.05;32.38;;;-0.20;99.90;;;-148.53;100.00;63986.66;5036122;28;20540;-80
2024/03/09 06:30:22;;;;;;;82.20;33.45;;;0.00;99.90;;;-148.53;100.00;63986.66;5038620;28;20037;-83
2024/03/09 06:32:49;;;;;;;76.03;33.13;;;0.30;99.90;;;-148.53;100.00;63986.66;5036795;28;20124;-81
2024/03/09 06:35:25;;;;;;;87.97;34.35;;;0.60;99.90;;;-148.53;100.00;63986.66;5038199;28;20130;-79
2024/03/09 06:38:04;;;;;;;78.28;33.78;;;0.70;99.90;;;-148.53;100.00;63986.66;5039469;28;20083;-82
2024/03/09 06:40:36;;;;;;;81.35;33.58;;;0.90;99.90;;;-148.53;100.00;63986.66;5033161;28;20036;-78
2024/03/09 06:43:11;;;;;;;77.65;35.85;;;1.10;99.90;;;-148.53;100.00;63986.66;5033590;28;20037;-79
2024/03/09 06:45:40;;;;;;;75.47;33.25;;;1.10;99.90;;;-148.53;100.00;63986.66;5053976;28;20137;-79
2024/03/09 06:48:06;;;;;;;76.57;33.17;;;1.20;99.90;;;-148.53;100.00;63986.66;5035795;28;20521;-79
2024/03/09 06:50:35;;;;;;;79.30;35.45;;;1.30;99.90;;;-148.53;100.00;63986.66;5039672;28;20044;-80
2024/03/09 06:53:01;;;;;;;73.93;32.28;;;1.30;99.90;;;-148.53;100.00;63986.66;5038329;28;20049;-78
2024/03/09 06:55:29;;;;;;;70.57;32.33;;;1.40;99.90;;;-148.53;100.00;63986.66;5037216;28;20037;-78
2024/03/09 06:57:56;;;;;;;68.72;31.83;;;1.50;99.90;;;-148.53;100.00;63986.66;5042145;28;20076;-79
2024/03/09 07:00:25;;;;;;;71.78;32.05;;;1.60;99.90;;;-148.53;100.00;63986.66;5023564;28;20034;-77
2024/03/09 07:02:53;;;;;;;66.72;30.88;;;1.70;99.90;;;-148.53;100.00;63986.66;5018002;28;20133;-79
2024/03/09 07:05:20;;;;;;;64.50;30.98;;;1.80;99.90;;;-148.53;100.00;63986.66;5025768;28;20453;-78
2024/03/09 07:07:46;;;;;;;63.97;30.15;;;1.80;99.90;;;-148.53;100.00;63986.66;5022733;28;20030;-79
2024/03/09 07:10:12;;;;;;;62.05;29.35;;;1.90;99.90;;;-148.53;100.00;63986.66;5027538;28;20037;-78
2024/03/09 07:12:41;;;;;;;62.58;29.83;;;2.00;99.90;;;-148.53;100.00;63986.66;5036686;28;20046;-79
2024/03/09 07:15:16;;;;;;;60.90;28.35;;;2.10;99.90;;;-148.53;100.00;63986.66;5018961;28;20055;-78
2024/03/09 07:17:48;;;;;;;60.70;28.55;;;2.30;99.90;;;-148.53;100.00;63986.66;5043717;28;20030;-78
2024/03/09 07:20:16;;;;;;;57.40;29.30;;;2.30;99.90;;;-148.53;100.00;63986.66;5031901;28;20124;-79
2024/03/09 07:22:45;;;;;;;55.17;28.30;;;2.50;99.90;;;-148.53;100.00;63986.66;5014181;28;20042;-79
2024/03/09 07:25:14;;;;;;;58.40;28.63;;;2.60;99.90;;;-148.53;100.00;63986.66;5017365;28;20069;-78
2024/03/09 07:27:41;;;;;;;54.40;26.80;;;2.60;99.90;;;-148.53;100.00;63986.66;5026646;28;20029;-80
2024/03/09 07:30:14;;;;;;;53.50;26.15;;;2.70;99.90;;;-148.53;100.00;63986.66;5025442;28;20469;-81
2024/03/09 07:32:44;;;;;;;53.95;26.30;;;2.80;99.90;;;-148.53;100.00;63986.66;5031490;28;20519;-79
2024/03/09 07:35:15;;;;;;;49.53;25.08;;;2.90;99.90;;;-148.53;100.00;63986.66;5029078;28;20041;-78
2024/03/09 07:37:46;;;;;;;50.25;25.13;;;2.90;99.90;;;-148.53;100.00;63986.66;5033378;28;20033;-79
2024/03/09 07:40:14;;;;;;;48.38;24.95;;;3.00;99.90;;;-148.53;100.00;63986.66;5025563;28;20969;-78
2024/03/09 07:42:41;;;;;;;46.85;25.05;;;3.20;99.90;;;-148.53;100.00;63986.66;5027305;28;20042;-77
2024/03/09 07:45:15;;;;;;;49.33;25.30;;;3.30;99.90;;;-148.53;100.00;63986.66;5015539;28;20162;-80
2024/03/09 07:47:45;;;;;;;48.67;24.75;;;3.30;99.90;;;-148.53;100.00;63986.66;5026920;28;20524;-78
2024/03/09 07:50:14;;;;;;;49.40;24.73;;;3.40;99.90;;;-148.53;100.00;63986.66;5022564;28;20476;-77
2024/03/09 07:52:48;;;;;;;49.92;23.58;;;3.50;99.90;;;-148.53;100.00;63986.66;5023015;28;20040;-78
2024/03/09 07:55:16;;;;;;;45.25;23.65;;;3.60;99.90;;;-148.53;100.00;63986.66;5026408;28;20508;-79
2024/03/09 07:57:45;;;;;;;;;;;3.70;99.90;;;-148.53;100.00;63986.66;5022832;28;20056;-77
2024/03/09 08:00:17;;;;;;;43.22;23.10;;;3.80;99.90;;;-148.53;100.00;63986.66;5020328;28;20373;-78
2024/03/09 08:02:46;;;;;;;43.58;22.20;;;3.90;99.90;;;-148.53;100.00;63986.66;5043716;28;20060;-78
2024/03/09 08:05:16;;;;;;;44.05;23.95;;;4.00;99.90;;;-148.53;100.00;63986.66;5027801;28;20411;-79
2024/03/09 08:07:44;;;;;;;45.42;23.25;;;4.20;99.90;;;-148.53;100.00;63986.66;5021877;28;20033;-82
2024/03/09 08:10:21;;;;;;;44.33;23.75;;;4.10;99.90;;;-148.53;100.00;63986.66;5013727;28;20041;-80
2024/03/09 08:12:49;;;;;;;43.30;23.53;;;4.10;99.90;;;-148.53;100.00;63986.66;5018180;28;20029;-81
2024/03/09 08:15:16;;;;;;;44.85;23.27;;;4.20;99.90;;;-148.53;100.00;63986.66;5019466;28;20037;-81
2024/03/09 08:17:43;;;;;;;42.13;23.02;;;4.40;99.90;;;-148.53;100.00;63986.66;5022031;28;20045;-79
2024/03/09 08:20:14;;;;;;;45.15;24.10;;;4.40;99.90;;;-148.53;100.00;63986.66;5023520;28;20091;-79
2024/03/09 08:22:42;;;;;;;46.08;23.95;;;4.50;99.90;;;-148.53;100.00;63986.66;5030295;28;20052;-81
2024/03/09 08:25:15;;;;;;;43.92;22.95;;;4.70;99.90;;;-148.53;100.00;63986.66;5041606;28;20044;-82
2024/03/09 08:27:44;;;;;;;42.10;22.90;;;4.80;99.90;;;-148.53;100.00;63986.66;5024540;28;20536;-80
2024/03/09 08:30:15;;;;;;;41.42;22.17;;;4.90;99.90;;;-148.53;100.00;63986.66;5028741;28;20044;-80
2024/03/09 08:32:44;;;;;;;41.00;22.58;;;5.00;99.90;;;-148.53;100.00;63986.66;5020560;28;20366;-78
2024/03/09 08:35:19;;;;;;;38.72;21.40;;;5.10;99.90;;;-148.53;100.00;63986.66;5021522;28;20029;-80
2024/03/09 08:37:46;;;;;;;43.97;23.50;;;5.10;99.90;;;-148.53;100.00;63986.66;5013713;28;20056;-82
2024/03/09 08:40:18;;;;;;;41.17;21.02;;;5.30;99.90;;;-148.53;100.00;63986.66;5018689;28;20068;-84
2024/03/09 08:42:51;;;;;;;39.00;22.13;;;5.40;99.90;;;-148.53;100.00;63986.66;5022766;28;20040;-82
2024/03/09 08:45:21;;;;;;;39.67;22.02;;;5.60;99.90;;;-148.53;100.00;63986.66;5010791;28;20665;-83
2024/03/09 08:47:52;;;;;;;38.65;20.10;;;5.80;99.90;;;-148.53;100.00;63986.66;5035677;28;20029;-81
2024/03/09 08:50:21;;;;;;;35.80;20.05;;;5.80;99.90;;;-148.53;100.00;63986.66;5012119;28;20428;-80
2024/03/09 08:52:47;;;;;;;38.65;21.02;;;5.80;99.90;;;-148.53;100.00;63986.66;5027192;28;20034;-85
2024/03/09 08:55:14;;;;;;;38.80;21.88;;;5.80;99.90;;;-148.53;100.00;63986.66;5019355;28;20037;-83
2024/03/09 08:57:48;;;;;;;40.83;21.80;;;5.90;99.90;;;-148.53;100.00;63986.66;5049378;28;20045;-81
2024/03/09 09:00:19;;;;;;;35.17;20.38;;;6.10;99.90;;;-148.53;100.00;63986.66;5021785;28;20041;-80
2024/03/09 09:02:46;;;;;;;36.25;19.88;;;6.10;99.90;;;-148.53;100.00;63986.66;5027687;28;20053;-78
2024/03/09 09:05:13;;;;;;;35.63;19.50;;;6.10;99.90;;;-148.53;100.00;63986.66;5022305;28;20049;-77
2024/03/09 09:07:43;;;;;;;36.15;20.08;;;6.40;99.90;;;-148.53;100.00;63986.66;5020829;28;20046;-80
2024/03/09 09:10:14;;;;;;;34.92;19.92;;;;;;;-148.53;100.00;63986.66;5023920;28;20025;-78
2024/03/09 09:12:45;;;;;;;32.78;19.52;;;;;;;-148.53;100.00;63986.66;5028194;28;20136;-80
2024/03/09 09:15:12;;;;;;;37.40;20.20;;;;;;;-148.53;100.00;63986.66;5017877;28;20124;-83
2024/03/09 09:17:42;;;;;;;29.35;18.70;;;;;;;-148.53;100.00;63986.66;5030906;28;20112;-82
2024/03/09 09:20:11;;;;;;;33.53;19.33;;;6.50;99.90;;;-148.53;100.00;63986.66;5016357;28;20489;-84
2024/03/09 09:22:42;;;;;;;33.67;18.40;;;7.30;99.90;;;-148.53;100.00;63986.66;5025996;28;20109;-79
2024/03/09 09:25:12;;;;;;;31.40;18.58;;;7.20;99.90;;;-148.53;100.00;63986.66;5025046;28;20030;-83
2024/03/09 09:27:41;;;;;;;32.92;18.88;;;7.30;99.90;;;-148.53;100.00;63986.66;5021513;28;20040;-84
2024/03/09 09:30:08;;;;;;;32.20;18.33;;;7.60;99.90;;;-148.53;100.00;63986.66;5033298;28;20044;-83
2024/03/09 09:32:34;;;;;;;33.88;18.55;;;7.70;99.90;;;-148.53;100.00;63986.66;5035127;28;20042;-85
2024/03/09 09:35:02;;;;;;;30.08;17.48;;;7.90;99.90;;;-148.53;100.00;63986.66;5037000;28;20084;-86
2024/03/09 09:37:29;;;;;;;29.25;17.50;;;7.80;99.90;;;-148.53;100.00;63986.66;5028075;28;20037;-86
2024/03/09 09:39:55;;;;;;;32.60;18.02;;;7.80;99.90;;;-148.53;100.00;63986.66;5026639;28;20037;-85
2024/03/09 09:42:29;;;;;;;29.60;17.75;;;7.90;99.90;;;-148.53;100.00;63986.66;5030935;28;20485;-85
2024/03/09 09:44:57;;;;;;;30.42;17.65;;;8.00;99.90;;;-148.53;100.00;63986.66;5029249;28;20049;-85
2024/03/09 09:47:28;;;;;;;29.55;17.73;;;8.00;99.90;;;-148.53;100.00;63986.66;5028619;28;20064;-80
2024/03/09 09:49:56;;;;;;;30.55;17.75;;;8.20;99.90;;;-148.53;100.00;63986.66;5031136;28;20079;-86
2024/03/09 09:52:25;;;;;;;26.25;17.00;;;8.30;99.90;;;-148.53;100.00;63986.66;5026693;28;20034;-87
2024/03/09 09:54:56;;;;;;;28.75;16.95;;;8.40;99.90;;;-148.53;100.00;63986.66;5016972;28;20183;-86
2024/03/09 09:57:22;;;;;;;25.80;16.40;;;8.40;99.90;;;-148.53;100.00;63986.66;5044955;28;20088;-84
2024/03/09 09:59:47;;;;;;;30.13;16.48;;;8.60;99.90;;;-148.53;100.00;63986.66;5024099;28;20459;-84
2024/03/09 10:02:16;;;;;;;27.52;16.27;;;9.00;99.90;;;-148.53;100.00;63986.66;5019291;28;20044;-85